sensor_id;sensor_type;location;lat;lon;timestamp;P1;P2;P0
80643;PMS5003;70010;60.224;24.712;2024-02-16T00:02:13;39;31;
80643;PMS5003;70010;60.224;24.712;2024-02-16T00:04:39;47;26;
80643;PMS5003;70010;60.224;24.712;2024-02-16T00:07:05;39;29;
80643;PMS5003;70010;60.224;24.712;2024-02-16T00:09:30;36;29;
80643;PMS5003;70010;60.224;24.712;2024-02-16T00:11:56;41;30;
80643;PMS5003;70010;60.224;24.712;2024-02-16T00:14:21;35;28;
80643;PMS5003;70010;60.224;24.712;2024-02-16T00:16:47;39;27;
80643;PMS5003;70010;60.224;24.712;2024-02-16T00:19:13;44;30;
80643;PMS5003;70010;60.224;24.712;2024-02-16T00:21:38;36;26;
80643;PMS5003;70010;60.224;24.712;2024-02-16T00:24:04;36;29;
80643;PMS5003;70010;60.224;24.712;2024-02-16T00:26:30;34;24;
80643;PMS5003;70010;60.224;24.712;2024-02-16T00:28:55;25;22;
80643;PMS5003;70010;60.224;24.712;2024-02-16T00:31:21;35;27;
80643;PMS5003;70010;60.224;24.712;2024-02-16T00:33:47;35;28;
80643;PMS5003;70010;60.224;24.712;2024-02-16T00:36:13;33;26;
80643;PMS5003;70010;60.224;24.712;2024-02-16T00:38:38;24;21;
80643;PMS5003;70010;60.224;24.712;2024-02-16T00:41:03;40;25;
80643;PMS5003;70010;60.224;24.712;2024-02-16T00:43:29;39;26;
80643;PMS5003;70010;60.224;24.712;2024-02-16T00:45:54;23;21;
80643;PMS5003;70010;60.224;24.712;2024-02-16T00:48:20;29;23;
80643;PMS5003;70010;60.224;24.712;2024-02-16T00:50:46;28;23;
80643;PMS5003;70010;60.224;24.712;2024-02-16T00:53:12;33;23;
80643;PMS5003;70010;60.224;24.712;2024-02-16T00:55:37;41;28;
80643;PMS5003;70010;60.224;24.712;2024-02-16T00:58:02;22;19;
80643;PMS5003;70010;60.224;24.712;2024-02-16T01:00:27;32;26;
80643;PMS5003;70010;60.224;24.712;2024-02-16T01:02:52;39;25;
80643;PMS5003;70010;60.224;24.712;2024-02-16T01:05:18;24;20;
80643;PMS5003;70010;60.224;24.712;2024-02-16T01:07:44;28;22;
80643;PMS5003;70010;60.224;24.712;2024-02-16T01:10:09;27;23;
80643;PMS5003;70010;60.224;24.712;2024-02-16T01:12:34;32;21;
80643;PMS5003;70010;60.224;24.712;2024-02-16T01:15:00;29;19;
80643;PMS5003;70010;60.224;24.712;2024-02-16T01:17:25;26;18;
80643;PMS5003;70010;60.224;24.712;2024-02-16T01:19:51;32;21;
80643;PMS5003;70010;60.224;24.712;2024-02-16T01:22:16;19;17;
80643;PMS5003;70010;60.224;24.712;2024-02-16T01:24:42;30;19;
80643;PMS5003;70010;60.224;24.712;2024-02-16T01:27:08;20;17;
80643;PMS5003;70010;60.224;24.712;2024-02-16T01:29:33;19;17;
80643;PMS5003;70010;60.224;24.712;2024-02-16T01:31:59;20;17;
80643;PMS5003;70010;60.224;24.712;2024-02-16T01:34:24;18;17;
80643;PMS5003;70010;60.224;24.712;2024-02-16T01:36:49;19;16;
80643;PMS5003;70010;60.224;24.712;2024-02-16T01:39:14;17;15;
80643;PMS5003;70010;60.224;24.712;2024-02-16T01:41:40;11;11;
80643;PMS5003;70010;60.224;24.712;2024-02-16T01:44:05;19;12;
80643;PMS5003;70010;60.224;24.712;2024-02-16T01:46:31;12;12;
80643;PMS5003;70010;60.224;24.712;2024-02-16T01:48:56;17;13;
80643;PMS5003;70010;60.224;24.712;2024-02-16T01:51:22;19;13;
80643;PMS5003;70010;60.224;24.712;2024-02-16T01:53:47;16;15;
80643;PMS5003;70010;60.224;24.712;2024-02-16T01:56:12;12;11;
80643;PMS5003;70010;60.224;24.712;2024-02-16T01:58:38;15;13;
80643;PMS5003;70010;60.224;24.712;2024-02-16T02:01:03;22;16;
80643;PMS5003;70010;60.224;24.712;2024-02-16T02:03:29;12;12;
80643;PMS5003;70010;60.224;24.712;2024-02-16T02:05:54;18;12;
80643;PMS5003;70010;60.224;24.712;2024-02-16T02:08:19;17;14;
80643;PMS5003;70010;60.224;24.712;2024-02-16T02:10:45;15;13;
80643;PMS5003;70010;60.224;24.712;2024-02-16T02:13:10;14;10;
80643;PMS5003;70010;60.224;24.712;2024-02-16T02:15:36;14;14;
80643;PMS5003;70010;60.224;24.712;2024-02-16T02:18:02;7;7;
80643;PMS5003;70010;60.224;24.712;2024-02-16T02:20:27;10;8;
80643;PMS5003;70010;60.224;24.712;2024-02-16T02:22:52;9;8;
80643;PMS5003;70010;60.224;24.712;2024-02-16T02:25:17;15;11;
80643;PMS5003;70010;60.224;24.712;2024-02-16T02:27:43;9;9;
80643;PMS5003;70010;60.224;24.712;2024-02-16T02:30:08;9;6;
80643;PMS5003;70010;60.224;24.712;2024-02-16T02:32:34;6;6;
80643;PMS5003;70010;60.224;24.712;2024-02-16T02:34:59;8;7;
80643;PMS5003;70010;60.224;24.712;2024-02-16T02:37:25;7;7;
80643;PMS5003;70010;60.224;24.712;2024-02-16T02:39:50;8;6;
80643;PMS5003;70010;60.224;24.712;2024-02-16T02:42:15;8;7;
80643;PMS5003;70010;60.224;24.712;2024-02-16T02:44:41;6;6;
80643;PMS5003;70010;60.224;24.712;2024-02-16T02:47:06;7;5;
80643;PMS5003;70010;60.224;24.712;2024-02-16T02:49:32;7;6;
80643;PMS5003;70010;60.224;24.712;2024-02-16T02:51:57;7;6;
80643;PMS5003;70010;60.224;24.712;2024-02-16T02:54:23;4;4;
80643;PMS5003;70010;60.224;24.712;2024-02-16T02:56:48;8;6;
80643;PMS5003;70010;60.224;24.712;2024-02-16T02:59:13;6;6;
80643;PMS5003;70010;60.224;24.712;2024-02-16T03:01:39;6;4;
80643;PMS5003;70010;60.224;24.712;2024-02-16T03:04:04;6;5;
80643;PMS5003;70010;60.224;24.712;2024-02-16T03:06:29;5;5;
80643;PMS5003;70010;60.224;24.712;2024-02-16T03:08:55;5;4;
80643;PMS5003;70010;60.224;24.712;2024-02-16T03:11:20;6;5;
80643;PMS5003;70010;60.224;24.712;2024-02-16T03:13:45;7;5;
80643;PMS5003;70010;60.224;24.712;2024-02-16T03:16:11;5;5;
80643;PMS5003;70010;60.224;24.712;2024-02-16T03:18:36;5;5;
80643;PMS5003;70010;60.224;24.712;2024-02-16T03:21:02;6;6;
80643;PMS5003;70010;60.224;24.712;2024-02-16T03:23:27;7;6;
80643;PMS5003;70010;60.224;24.712;2024-02-16T03:25:52;5;5;
80643;PMS5003;70010;60.224;24.712;2024-02-16T03:28:17;5;5;
80643;PMS5003;70010;60.224;24.712;2024-02-16T03:30:43;5;4;
80643;PMS5003;70010;60.224;24.712;2024-02-16T03:33:08;4;4;
80643;PMS5003;70010;60.224;24.712;2024-02-16T03:35:33;5;5;
80643;PMS5003;70010;60.224;24.712;2024-02-16T03:37:58;3;3;
80643;PMS5003;70010;60.224;24.712;2024-02-16T03:40:24;7;7;
80643;PMS5003;70010;60.224;24.712;2024-02-16T03:42:49;4;4;
80643;PMS5003;70010;60.224;24.712;2024-02-16T03:45:15;12;4;
80643;PMS5003;70010;60.224;24.712;2024-02-16T03:47:40;6;5;
80643;PMS5003;70010;60.224;24.712;2024-02-16T03:50:06;5;5;
80643;PMS5003;70010;60.224;24.712;2024-02-16T03:52:31;8;4;
80643;PMS5003;70010;60.224;24.712;2024-02-16T03:54:56;5;5;
80643;PMS5003;70010;60.224;24.712;2024-02-16T03:57:22;7;5;
80643;PMS5003;70010;60.224;24.712;2024-02-16T03:59:47;5;5;
80643;PMS5003;70010;60.224;24.712;2024-02-16T04:02:12;6;5;
80643;PMS5003;70010;60.224;24.712;2024-02-16T04:04:38;7;7;
80643;PMS5003;70010;60.224;24.712;2024-02-16T04:07:03;7;7;
80643;PMS5003;70010;60.224;24.712;2024-02-16T04:09:28;6;5;
80643;PMS5003;70010;60.224;24.712;2024-02-16T04:11:54;4;4;
80643;PMS5003;70010;60.224;24.712;2024-02-16T04:14:19;9;7;
80643;PMS5003;70010;60.224;24.712;2024-02-16T04:16:45;9;7;
80643;PMS5003;70010;60.224;24.712;2024-02-16T04:19:10;7;5;
80643;PMS5003;70010;60.224;24.712;2024-02-16T04:21:36;6;6;
80643;PMS5003;70010;60.224;24.712;2024-02-16T04:24:01;8;8;
80643;PMS5003;70010;60.224;24.712;2024-02-16T04:26:26;8;7;
80643;PMS5003;70010;60.224;24.712;2024-02-16T04:28:52;10;7;
80643;PMS5003;70010;60.224;24.712;2024-02-16T04:31:18;8;6;
80643;PMS5003;70010;60.224;24.712;2024-02-16T04:33:43;6;6;
80643;PMS5003;70010;60.224;24.712;2024-02-16T04:36:08;5;5;
80643;PMS5003;70010;60.224;24.712;2024-02-16T04:38:33;7;6;
80643;PMS5003;70010;60.224;24.712;2024-02-16T04:40:58;9;6;
80643;PMS5003;70010;60.224;24.712;2024-02-16T04:43:24;7;6;
80643;PMS5003;70010;60.224;24.712;2024-02-16T04:45:49;6;6;
80643;PMS5003;70010;60.224;24.712;2024-02-16T04:48:14;8;7;
80643;PMS5003;70010;60.224;24.712;2024-02-16T04:50:40;7;7;
80643;PMS5003;70010;60.224;24.712;2024-02-16T04:53:05;7;6;
80643;PMS5003;70010;60.224;24.712;2024-02-16T04:55:30;6;6;
80643;PMS5003;70010;60.224;24.712;2024-02-16T04:57:56;8;8;
80643;PMS5003;70010;60.224;24.712;2024-02-16T05:00:21;10;9;
80643;PMS5003;70010;60.224;24.712;2024-02-16T05:02:46;12;8;
80643;PMS5003;70010;60.224;24.712;2024-02-16T05:05:12;10;8;
80643;PMS5003;70010;60.224;24.712;2024-02-16T05:07:37;13;8;
80643;PMS5003;70010;60.224;24.712;2024-02-16T05:10:03;9;9;
80643;PMS5003;70010;60.224;24.712;2024-02-16T05:12:28;10;10;
80643;PMS5003;70010;60.224;24.712;2024-02-16T05:14:54;13;8;
80643;PMS5003;70010;60.224;24.712;2024-02-16T05:17:19;13;10;
80643;PMS5003;70010;60.224;24.712;2024-02-16T05:19:45;13;10;
80643;PMS5003;70010;60.224;24.712;2024-02-16T05:22:11;15;12;
80643;PMS5003;70010;60.224;24.712;2024-02-16T05:24:36;10;9;
80643;PMS5003;70010;60.224;24.712;2024-02-16T05:27:02;21;14;
80643;PMS5003;70010;60.224;24.712;2024-02-16T05:29:28;16;11;
80643;PMS5003;70010;60.224;24.712;2024-02-16T05:31:53;12;10;
80643;PMS5003;70010;60.224;24.712;2024-02-16T05:34:18;13;8;
80643;PMS5003;70010;60.224;24.712;2024-02-16T05:36:44;11;11;
80643;PMS5003;70010;60.224;24.712;2024-02-16T05:39:10;13;9;
80643;PMS5003;70010;60.224;24.712;2024-02-16T05:41:35;15;10;
80643;PMS5003;70010;60.224;24.712;2024-02-16T05:44:00;11;9;
80643;PMS5003;70010;60.224;24.712;2024-02-16T05:46:26;10;9;
80643;PMS5003;70010;60.224;24.712;2024-02-16T05:48:51;8;7;
80643;PMS5003;70010;60.224;24.712;2024-02-16T05:51:16;9;9;
80643;PMS5003;70010;60.224;24.712;2024-02-16T05:53:41;10;10;
80643;PMS5003;70010;60.224;24.712;2024-02-16T05:56:07;13;9;
80643;PMS5003;70010;60.224;24.712;2024-02-16T05:58:33;12;10;
80643;PMS5003;70010;60.224;24.712;2024-02-16T06:00:59;16;13;
80643;PMS5003;70010;60.224;24.712;2024-02-16T06:03:24;13;12;
80643;PMS5003;70010;60.224;24.712;2024-02-16T06:05:49;13;12;
80643;PMS5003;70010;60.224;24.712;2024-02-16T06:08:14;20;15;
80643;PMS5003;70010;60.224;24.712;2024-02-16T06:10:40;18;11;
80643;PMS5003;70010;60.224;24.712;2024-02-16T06:13:05;14;11;
80643;PMS5003;70010;60.224;24.712;2024-02-16T06:15:30;12;12;
80643;PMS5003;70010;60.224;24.712;2024-02-16T06:17:56;13;11;
80643;PMS5003;70010;60.224;24.712;2024-02-16T06:20:21;12;10;
80643;PMS5003;70010;60.224;24.712;2024-02-16T06:22:47;14;14;
80643;PMS5003;70010;60.224;24.712;2024-02-16T06:25:13;18;13;
80643;PMS5003;70010;60.224;24.712;2024-02-16T06:27:37;14;10;
80643;PMS5003;70010;60.224;24.712;2024-02-16T06:30:03;16;10;
80643;PMS5003;70010;60.224;24.712;2024-02-16T06:32:28;14;13;
80643;PMS5003;70010;60.224;24.712;2024-02-16T06:34:53;12;9;
80643;PMS5003;70010;60.224;24.712;2024-02-16T06:37:19;14;13;
80643;PMS5003;70010;60.224;24.712;2024-02-16T06:39:44;12;9;
80643;PMS5003;70010;60.224;24.712;2024-02-16T06:42:09;9;9;
80643;PMS5003;70010;60.224;24.712;2024-02-16T06:44:34;12;10;
80643;PMS5003;70010;60.224;24.712;2024-02-16T06:47:00;9;9;
80643;PMS5003;70010;60.224;24.712;2024-02-16T06:49:26;13;8;
80643;PMS5003;70010;60.224;24.712;2024-02-16T06:51:52;11;10;
80643;PMS5003;70010;60.224;24.712;2024-02-16T06:54:17;12;10;
80643;PMS5003;70010;60.224;24.712;2024-02-16T06:56:42;9;9;
80643;PMS5003;70010;60.224;24.712;2024-02-16T06:59:08;8;7;
80643;PMS5003;70010;60.224;24.712;2024-02-16T07:01:33;10;7;
80643;PMS5003;70010;60.224;24.712;2024-02-16T07:03:58;10;9;
80643;PMS5003;70010;60.224;24.712;2024-02-16T07:06:24;8;8;
80643;PMS5003;70010;60.224;24.712;2024-02-16T07:08:49;8;7;
80643;PMS5003;70010;60.224;24.712;2024-02-16T07:11:14;10;8;
80643;PMS5003;70010;60.224;24.712;2024-02-16T07:13:40;9;9;
80643;PMS5003;70010;60.224;24.712;2024-02-16T07:16:05;8;8;
80643;PMS5003;70010;60.224;24.712;2024-02-16T07:18:31;17;7;
80643;PMS5003;70010;60.224;24.712;2024-02-16T07:20:56;7;7;
80643;PMS5003;70010;60.224;24.712;2024-02-16T07:23:22;8;7;
80643;PMS5003;70010;60.224;24.712;2024-02-16T07:25:47;5;5;
80643;PMS5003;70010;60.224;24.712;2024-02-16T07:28:12;10;7;
80643;PMS5003;70010;60.224;24.712;2024-02-16T07:30:37;9;8;
80643;PMS5003;70010;60.224;24.712;2024-02-16T07:33:03;8;7;
80643;PMS5003;70010;60.224;24.712;2024-02-16T07:35:28;8;8;
80643;PMS5003;70010;60.224;24.712;2024-02-16T07:37:53;6;6;
80643;PMS5003;70010;60.224;24.712;2024-02-16T07:40:19;9;6;
80643;PMS5003;70010;60.224;24.712;2024-02-16T07:42:44;10;7;
80643;PMS5003;70010;60.224;24.712;2024-02-16T07:45:09;10;9;
80643;PMS5003;70010;60.224;24.712;2024-02-16T07:47:35;7;7;
80643;PMS5003;70010;60.224;24.712;2024-02-16T07:50:00;8;8;
80643;PMS5003;70010;60.224;24.712;2024-02-16T07:52:25;7;6;
80643;PMS5003;70010;60.224;24.712;2024-02-16T07:54:51;14;6;
80643;PMS5003;70010;60.224;24.712;2024-02-16T07:57:16;12;7;
80643;PMS5003;70010;60.224;24.712;2024-02-16T07:59:42;8;6;
80643;PMS5003;70010;60.224;24.712;2024-02-16T08:02:07;5;5;
80643;PMS5003;70010;60.224;24.712;2024-02-16T08:04:32;9;8;
80643;PMS5003;70010;60.224;24.712;2024-02-16T08:06:57;9;8;
80643;PMS5003;70010;60.224;24.712;2024-02-16T08:09:23;8;8;
80643;PMS5003;70010;60.224;24.712;2024-02-16T08:11:48;9;7;
80643;PMS5003;70010;60.224;24.712;2024-02-16T08:14:14;7;5;
80643;PMS5003;70010;60.224;24.712;2024-02-16T08:16:39;7;5;
80643;PMS5003;70010;60.224;24.712;2024-02-16T08:19:04;5;5;
80643;PMS5003;70010;60.224;24.712;2024-02-16T08:21:30;6;6;
80643;PMS5003;70010;60.224;24.712;2024-02-16T08:23:55;6;6;
80643;PMS5003;70010;60.224;24.712;2024-02-16T08:26:20;8;6;
80643;PMS5003;70010;60.224;24.712;2024-02-16T08:28:46;8;7;
80643;PMS5003;70010;60.224;24.712;2024-02-16T08:31:14;6;6;
80643;PMS5003;70010;60.224;24.712;2024-02-16T08:33:36;8;6;
80643;PMS5003;70010;60.224;24.712;2024-02-16T08:36:02;5;5;
80643;PMS5003;70010;60.224;24.712;2024-02-16T08:38:27;6;6;
80643;PMS5003;70010;60.224;24.712;2024-02-16T08:40:52;11;6;
80643;PMS5003;70010;60.224;24.712;2024-02-16T08:43:17;9;8;
80643;PMS5003;70010;60.224;24.712;2024-02-16T08:45:43;7;7;
80643;PMS5003;70010;60.224;24.712;2024-02-16T08:48:08;5;5;
80643;PMS5003;70010;60.224;24.712;2024-02-16T08:50:34;9;6;
80643;PMS5003;70010;60.224;24.712;2024-02-16T08:52:59;6;6;
80643;PMS5003;70010;60.224;24.712;2024-02-16T08:55:24;7;7;
80643;PMS5003;70010;60.224;24.712;2024-02-16T08:57:50;6;6;
80643;PMS5003;70010;60.224;24.712;2024-02-16T09:00:15;8;8;
80643;PMS5003;70010;60.224;24.712;2024-02-16T09:02:40;7;7;
80643;PMS5003;70010;60.224;24.712;2024-02-16T09:05:06;8;8;
80643;PMS5003;70010;60.224;24.712;2024-02-16T09:07:30;10;7;
80643;PMS5003;70010;60.224;24.712;2024-02-16T09:09:56;9;8;
80643;PMS5003;70010;60.224;24.712;2024-02-16T09:12:21;8;7;
80643;PMS5003;70010;60.224;24.712;2024-02-16T09:14:46;7;7;
80643;PMS5003;70010;60.224;24.712;2024-02-16T09:17:12;5;5;
80643;PMS5003;70010;60.224;24.712;2024-02-16T09:19:37;6;6;
80643;PMS5003;70010;60.224;24.712;2024-02-16T09:22:02;9;9;
80643;PMS5003;70010;60.224;24.712;2024-02-16T09:24:28;8;7;
80643;PMS5003;70010;60.224;24.712;2024-02-16T09:26:53;7;7;
80643;PMS5003;70010;60.224;24.712;2024-02-16T09:29:19;13;8;
80643;PMS5003;70010;60.224;24.712;2024-02-16T09:31:44;7;7;
80643;PMS5003;70010;60.224;24.712;2024-02-16T09:34:09;10;7;
80643;PMS5003;70010;60.224;24.712;2024-02-16T09:36:35;6;6;
80643;PMS5003;70010;60.224;24.712;2024-02-16T09:39:00;10;8;
80643;PMS5003;70010;60.224;24.712;2024-02-16T09:41:25;6;5;
80643;PMS5003;70010;60.224;24.712;2024-02-16T09:43:50;9;7;
80643;PMS5003;70010;60.224;24.712;2024-02-16T09:46:16;7;7;
80643;PMS5003;70010;60.224;24.712;2024-02-16T09:48:41;17;10;
80643;PMS5003;70010;60.224;24.712;2024-02-16T09:51:07;7;7;
80643;PMS5003;70010;60.224;24.712;2024-02-16T09:53:33;5;5;
80643;PMS5003;70010;60.224;24.712;2024-02-16T09:55:58;8;7;
80643;PMS5003;70010;60.224;24.712;2024-02-16T09:58:24;9;8;
80643;PMS5003;70010;60.224;24.712;2024-02-16T10:00:50;8;8;
80643;PMS5003;70010;60.224;24.712;2024-02-16T10:05:41;8;8;
80643;PMS5003;70010;60.224;24.712;2024-02-16T10:08:11;10;9;
80643;PMS5003;70010;60.224;24.712;2024-02-16T10:10:32;9;9;
80643;PMS5003;70010;60.224;24.712;2024-02-16T10:13:01;13;10;
80643;PMS5003;70010;60.224;24.712;2024-02-16T10:15:23;7;7;
80643;PMS5003;70010;60.224;24.712;2024-02-16T10:20:18;13;9;
80643;PMS5003;70010;60.224;24.712;2024-02-16T10:22:39;15;12;
80643;PMS5003;70010;60.224;24.712;2024-02-16T10:25:06;15;9;
80643;PMS5003;70010;60.224;24.712;2024-02-16T10:27:30;13;12;
80643;PMS5003;70010;60.224;24.712;2024-02-16T10:29:56;13;10;
80643;PMS5003;70010;60.224;24.712;2024-02-16T10:32:21;13;10;
80643;PMS5003;70010;60.224;24.712;2024-02-16T10:34:47;13;12;
80643;PMS5003;70010;60.224;24.712;2024-02-16T10:37:12;8;8;
80643;PMS5003;70010;60.224;24.712;2024-02-16T10:39:37;13;10;
80643;PMS5003;70010;60.224;24.712;2024-02-16T10:42:03;14;13;
80643;PMS5003;70010;60.224;24.712;2024-02-16T10:44:28;7;7;
80643;PMS5003;70010;60.224;24.712;2024-02-16T10:46:53;16;12;
80643;PMS5003;70010;60.224;24.712;2024-02-16T10:49:18;9;9;
80643;PMS5003;70010;60.224;24.712;2024-02-16T10:51:45;9;8;
80643;PMS5003;70010;60.224;24.712;2024-02-16T10:54:09;17;15;
80643;PMS5003;70010;60.224;24.712;2024-02-16T10:56:34;10;9;
80643;PMS5003;70010;60.224;24.712;2024-02-16T10:59:02;12;11;
80643;PMS5003;70010;60.224;24.712;2024-02-16T11:01:24;14;14;
80643;PMS5003;70010;60.224;24.712;2024-02-16T11:03:50;9;9;
80643;PMS5003;70010;60.224;24.712;2024-02-16T11:06:16;15;10;
80643;PMS5003;70010;60.224;24.712;2024-02-16T11:08:41;16;14;
80643;PMS5003;70010;60.224;24.712;2024-02-16T11:11:06;15;13;
80643;PMS5003;70010;60.224;24.712;2024-02-16T11:13:32;13;10;
80643;PMS5003;70010;60.224;24.712;2024-02-16T11:15:56;12;10;
80643;PMS5003;70010;60.224;24.712;2024-02-16T11:18:21;15;11;
80643;PMS5003;70010;60.224;24.712;2024-02-16T11:20:46;16;14;
80643;PMS5003;70010;60.224;24.712;2024-02-16T11:23:11;16;13;
80643;PMS5003;70010;60.224;24.712;2024-02-16T11:25:36;13;12;
80643;PMS5003;70010;60.224;24.712;2024-02-16T11:28:02;18;10;
80643;PMS5003;70010;60.224;24.712;2024-02-16T11:30:27;10;10;
80643;PMS5003;70010;60.224;24.712;2024-02-16T11:32:52;27;12;
80643;PMS5003;70010;60.224;24.712;2024-02-16T11:35:18;12;12;
80643;PMS5003;70010;60.224;24.712;2024-02-16T11:37:43;16;12;
80643;PMS5003;70010;60.224;24.712;2024-02-16T11:40:10;13;12;
80643;PMS5003;70010;60.224;24.712;2024-02-16T11:42:33;14;13;
80643;PMS5003;70010;60.224;24.712;2024-02-16T11:44:59;14;12;
80643;PMS5003;70010;60.224;24.712;2024-02-16T11:47:24;14;12;
80643;PMS5003;70010;60.224;24.712;2024-02-16T11:49:49;15;13;
80643;PMS5003;70010;60.224;24.712;2024-02-16T11:52:14;17;14;
80643;PMS5003;70010;60.224;24.712;2024-02-16T11:54:43;9;9;
80643;PMS5003;70010;60.224;24.712;2024-02-16T11:57:04;17;12;
80643;PMS5003;70010;60.224;24.712;2024-02-16T11:59:30;27;11;
80643;PMS5003;70010;60.224;24.712;2024-02-16T12:01:55;14;14;
80643;PMS5003;70010;60.224;24.712;2024-02-16T12:04:21;17;13;
80643;PMS5003;70010;60.224;24.712;2024-02-16T12:06:46;13;13;
80643;PMS5003;70010;60.224;24.712;2024-02-16T12:09:15;17;14;
80643;PMS5003;70010;60.224;24.712;2024-02-16T12:11:37;12;9;
80643;PMS5003;70010;60.224;24.712;2024-02-16T12:14:02;15;10;
80643;PMS5003;70010;60.224;24.712;2024-02-16T12:16:29;14;13;
80643;PMS5003;70010;60.224;24.712;2024-02-16T12:21:18;14;12;
80643;PMS5003;70010;60.224;24.712;2024-02-16T12:23:43;16;14;
80643;PMS5003;70010;60.224;24.712;2024-02-16T12:26:09;15;12;
80643;PMS5003;70010;60.224;24.712;2024-02-16T12:28:35;9;9;
80643;PMS5003;70010;60.224;24.712;2024-02-16T12:31:00;16;16;
80643;PMS5003;70010;60.224;24.712;2024-02-16T12:33:25;14;12;
80643;PMS5003;70010;60.224;24.712;2024-02-16T12:35:51;9;9;
80643;PMS5003;70010;60.224;24.712;2024-02-16T12:38:16;12;12;
80643;PMS5003;70010;60.224;24.712;2024-02-16T12:40:41;12;11;
80643;PMS5003;70010;60.224;24.712;2024-02-16T12:43:06;16;12;
80643;PMS5003;70010;60.224;24.712;2024-02-16T12:45:32;16;10;
80643;PMS5003;70010;60.224;24.712;2024-02-16T12:47:57;12;12;
80643;PMS5003;70010;60.224;24.712;2024-02-16T12:50:22;13;11;
80643;PMS5003;70010;60.224;24.712;2024-02-16T12:52:47;12;12;
80643;PMS5003;70010;60.224;24.712;2024-02-16T12:55:13;20;13;
80643;PMS5003;70010;60.224;24.712;2024-02-16T12:57:38;14;12;
80643;PMS5003;70010;60.224;24.712;2024-02-16T13:00:04;19;14;
80643;PMS5003;70010;60.224;24.712;2024-02-16T13:02:29;18;14;
80643;PMS5003;70010;60.224;24.712;2024-02-16T13:04:54;16;14;
80643;PMS5003;70010;60.224;24.712;2024-02-16T13:07:19;14;13;
80643;PMS5003;70010;60.224;24.712;2024-02-16T13:09:45;21;12;
80643;PMS5003;70010;60.224;24.712;2024-02-16T13:12:10;12;12;
80643;PMS5003;70010;60.224;24.712;2024-02-16T13:14:35;15;12;
80643;PMS5003;70010;60.224;24.712;2024-02-16T13:17:01;11;11;
80643;PMS5003;70010;60.224;24.712;2024-02-16T13:19:26;17;11;
80643;PMS5003;70010;60.224;24.712;2024-02-16T13:21:51;13;9;
80643;PMS5003;70010;60.224;24.712;2024-02-16T13:24:17;12;10;
80643;PMS5003;70010;60.224;24.712;2024-02-16T13:26:43;11;11;
80643;PMS5003;70010;60.224;24.712;2024-02-16T13:29:08;8;8;
80643;PMS5003;70010;60.224;24.712;2024-02-16T13:31:34;13;11;
80643;PMS5003;70010;60.224;24.712;2024-02-16T13:34:00;13;13;
80643;PMS5003;70010;60.224;24.712;2024-02-16T13:36:25;12;12;
80643;PMS5003;70010;60.224;24.712;2024-02-16T13:38:50;12;9;
80643;PMS5003;70010;60.224;24.712;2024-02-16T13:41:15;17;13;
80643;PMS5003;70010;60.224;24.712;2024-02-16T13:43:41;23;12;
80643;PMS5003;70010;60.224;24.712;2024-02-16T13:46:06;12;12;
80643;PMS5003;70010;60.224;24.712;2024-02-16T13:48:31;14;14;
80643;PMS5003;70010;60.224;24.712;2024-02-16T13:50:57;16;14;
80643;PMS5003;70010;60.224;24.712;2024-02-16T13:53:22;14;12;
80643;PMS5003;70010;60.224;24.712;2024-02-16T13:55:47;17;13;
80643;PMS5003;70010;60.224;24.712;2024-02-16T13:58:12;14;12;
80643;PMS5003;70010;60.224;24.712;2024-02-16T14:00:37;14;12;
80643;PMS5003;70010;60.224;24.712;2024-02-16T14:03:04;16;9;
80643;PMS5003;70010;60.224;24.712;2024-02-16T14:05:29;11;9;
80643;PMS5003;70010;60.224;24.712;2024-02-16T14:07:54;25;12;
80643;PMS5003;70010;60.224;24.712;2024-02-16T14:10:19;17;12;
80643;PMS5003;70010;60.224;24.712;2024-02-16T14:12:44;15;13;
80643;PMS5003;70010;60.224;24.712;2024-02-16T14:15:10;12;12;
80643;PMS5003;70010;60.224;24.712;2024-02-16T14:17:35;12;11;
80643;PMS5003;70010;60.224;24.712;2024-02-16T14:20:00;12;11;
80643;PMS5003;70010;60.224;24.712;2024-02-16T14:22:26;17;13;
80643;PMS5003;70010;60.224;24.712;2024-02-16T14:24:51;14;12;
80643;PMS5003;70010;60.224;24.712;2024-02-16T14:27:16;9;9;
80643;PMS5003;70010;60.224;24.712;2024-02-16T14:29:41;14;12;
80643;PMS5003;70010;60.224;24.712;2024-02-16T14:32:07;12;8;
80643;PMS5003;70010;60.224;24.712;2024-02-16T14:34:33;12;9;
80643;PMS5003;70010;60.224;24.712;2024-02-16T14:36:59;17;8;
80643;PMS5003;70010;60.224;24.712;2024-02-16T14:39:24;9;9;
80643;PMS5003;70010;60.224;24.712;2024-02-16T14:41:50;12;7;
80643;PMS5003;70010;60.224;24.712;2024-02-16T14:44:16;11;8;
80643;PMS5003;70010;60.224;24.712;2024-02-16T14:46:41;9;9;
80643;PMS5003;70010;60.224;24.712;2024-02-16T14:49:07;11;11;
80643;PMS5003;70010;60.224;24.712;2024-02-16T14:51:32;11;11;
80643;PMS5003;70010;60.224;24.712;2024-02-16T14:53:57;8;8;
80643;PMS5003;70010;60.224;24.712;2024-02-16T14:56:23;8;8;
80643;PMS5003;70010;60.224;24.712;2024-02-16T14:58:48;8;6;
80643;PMS5003;70010;60.224;24.712;2024-02-16T15:01:13;8;7;
80643;PMS5003;70010;60.224;24.712;2024-02-16T15:03:39;8;7;
80643;PMS5003;70010;60.224;24.712;2024-02-16T15:06:04;9;9;
80643;PMS5003;70010;60.224;24.712;2024-02-16T15:08:29;7;7;
80643;PMS5003;70010;60.224;24.712;2024-02-16T15:10:54;11;8;
80643;PMS5003;70010;60.224;24.712;2024-02-16T15:13:20;7;6;
80643;PMS5003;70010;60.224;24.712;2024-02-16T15:15:45;9;8;
80643;PMS5003;70010;60.224;24.712;2024-02-16T15:18:10;6;6;
80643;PMS5003;70010;60.224;24.712;2024-02-16T15:20:36;8;7;
80643;PMS5003;70010;60.224;24.712;2024-02-16T15:23:01;15;7;
80643;PMS5003;70010;60.224;24.712;2024-02-16T15:25:26;7;7;
80643;PMS5003;70010;60.224;24.712;2024-02-16T15:27:52;7;7;
80643;PMS5003;70010;60.224;24.712;2024-02-16T15:30:17;7;7;
80643;PMS5003;70010;60.224;24.712;2024-02-16T15:32:42;7;7;
80643;PMS5003;70010;60.224;24.712;2024-02-16T15:35:08;7;7;
80643;PMS5003;70010;60.224;24.712;2024-02-16T15:37:34;6;6;
80643;PMS5003;70010;60.224;24.712;2024-02-16T15:39:58;7;5;
80643;PMS5003;70010;60.224;24.712;2024-02-16T15:42:26;5;5;
80643;PMS5003;70010;60.224;24.712;2024-02-16T15:44:50;7;6;
80643;PMS5003;70010;60.224;24.712;2024-02-16T15:47:15;5;5;
80643;PMS5003;70010;60.224;24.712;2024-02-16T15:49:40;11;7;
80643;PMS5003;70010;60.224;24.712;2024-02-16T15:52:06;8;6;
80643;PMS5003;70010;60.224;24.712;2024-02-16T15:54:31;8;6;
80643;PMS5003;70010;60.224;24.712;2024-02-16T15:56:56;7;7;
80643;PMS5003;70010;60.224;24.712;2024-02-16T15:59:22;6;4;
80643;PMS5003;70010;60.224;24.712;2024-02-16T16:01:47;8;5;
80643;PMS5003;70010;60.224;24.712;2024-02-16T16:04:13;13;9;
80643;PMS5003;70010;60.224;24.712;2024-02-16T16:06:38;14;9;
80643;PMS5003;70010;60.224;24.712;2024-02-16T16:09:04;10;7;
80643;PMS5003;70010;60.224;24.712;2024-02-16T16:11:29;7;6;
80643;PMS5003;70010;60.224;24.712;2024-02-16T16:13:54;6;6;